Terminal Aerodrome Forecast
Issued by NWS Cleveland, OH

Home | Current Version | Previous Version | Graphics & Text | Print | Product List | Glossary On
Versions: 1 2 3 4 5 6 7 8 9 10 11 12 13 14 15 16 17 18 19 20
000
FTUS41 KCLE 291700
TAFMFD
TAF
KMFD 291730Z 2918/3018 20015G30KT P6SM BKN200
     FM300100 21018G30KT P6SM -SHRA OVC050
     FM300400 21018G28KT 3SM -SHRA OVC025
     FM300700 26018G30KT P6SM SCT008 OVC015
     FM301400 27012G20KT P6SM BKN025=

USA.gov is the U.S. government's official web portal to all federal, state and local government web resources and services.